Time;durP1;ratioP1;P1;durP2;ratioP2;P2;SDS_P1;SDS_P2;PMS_P1;PMS_P2;Temp;Humidity;BMP_temperature;BMP_pressure;BME280_temperature;BME280_humidity;BME280_pressure;Samples;Min_cycle;Max_cycle;Signal;HPM_P1;HPM_P2
2022/05/01 00:00:25;;;;;;;9.07;4.03;;;;;;;;;;4976628;28;20252;-76
2022/05/01 00:02:54;;;;;;;8.60;3.47;;;;;;;;;;4966141;28;20246;-75
2022/05/01 00:05:20;;;;;;;9.97;3.60;;;;;;;;;;4992897;28;20260;-75
2022/05/01 00:07:45;;;;;;;6.57;3.50;;;;;;;;;;4974374;28;20221;-75
2022/05/01 00:10:15;;;;;;;7.33;3.60;;;;;;;;;;4958530;28;20308;-76
2022/05/01 00:12:43;;;;;;;6.57;3.40;;;;;;;;;;4932631;28;20225;-75
2022/05/01 00:15:12;;;;;;;8.83;3.93;;;;;;;;;;4985161;28;20246;-76
2022/05/01 00:17:38;;;;;;;9.90;3.80;;;;;;;;;;4969557;28;20233;-75
2022/05/01 00:20:04;;;;;;;7.63;3.67;;;;;;;;;;4981473;28;20237;-75
2022/05/01 00:22:32;;;;;;;9.23;3.83;;;;;;;;;;4945809;28;20272;-75
2022/05/01 00:24:59;;;;;;;5.43;3.50;;;;;;;;;;4959052;28;20313;-75
2022/05/01 00:27:25;;;;;;;7.60;4.10;;;;;;;;;;4975034;28;20706;-75
2022/05/01 00:29:50;;;;;;;8.37;3.63;;;;;;;;;;4975877;28;20225;-75
2022/05/01 00:32:16;;;;;;;8.93;3.43;;;;;;;;;;4967065;28;20238;-75
2022/05/01 00:37:25;;;;;;;6.93;3.57;;;;;;;;;;5003808;28;20779;-75
2022/05/01 00:39:51;;;;;;;10.17;4.20;;;;;;;;;;4993262;28;20257;-75
2022/05/01 00:42:17;;;;;;;5.47;3.50;;;;;;;;;;4974382;28;20273;-75
2022/05/01 00:44:44;;;;;;;6.97;3.73;;;;;;;;;;4969002;28;20213;-75
2022/05/01 00:47:10;;;;;;;7.67;3.90;;;;;;;;;;4970396;28;20260;-76
2022/05/01 00:49:38;;;;;;;10.03;4.23;;;;;;;;;;4970026;28;20611;-76
2022/05/01 00:52:10;;;;;;;6.47;3.67;;;;;;;;;;4980914;28;20225;-76
2022/05/01 00:54:40;;;;;;;8.67;3.97;;;;;;;;;;4977935;28;20315;-76
2022/05/01 00:57:06;;;;;;;9.63;4.10;;;;;;;;;;4967179;28;20344;-75
2022/05/01 00:59:32;;;;;;;7.40;4.27;;;;;;;;;;4966931;28;20715;-76
2022/05/01 01:01:59;;;;;;;8.27;3.77;;;;;;;;;;4988279;28;20311;-75
2022/05/01 01:04:25;;;;;;;7.23;3.83;;;;;;;;;;4983567;28;20217;-76
2022/05/01 01:06:50;;;;;;;8.57;3.90;;;;;;;;;;4988737;28;20231;-76
2022/05/01 01:09:16;;;;;;;8.20;4.23;;;;;;;;;;4959421;28;20229;-76
2022/05/01 01:11:44;;;;;;;7.47;4.30;;;;;;;;;;4977158;28;20221;-75
2022/05/01 01:14:12;;;;;;;7.57;4.60;;;;;;;;;;4976263;28;20225;-75
2022/05/01 01:16:38;;;;;;;10.63;4.70;;;;;;;;;;4967448;28;20247;-75
2022/05/01 01:19:07;;;;;;;6.47;4.13;;;;;;;;;;4950797;28;20286;-76
2022/05/01 01:21:35;;;;;;;6.87;4.30;;;;;;;;;;4954792;28;20279;-75
2022/05/01 01:24:07;;;;;;;8.67;4.60;;;;;;;;;;4977049;28;20281;-76
2022/05/01 01:26:34;;;;;;;6.20;4.17;;;;;;;;;;4970167;28;20727;-75
2022/05/01 01:28:59;;;;;;;10.60;4.60;;;;;;;;;;4967278;28;20754;-75
2022/05/01 01:31:43;;;;;;;7.77;4.50;;;;;;;;;;4975404;28;20224;-75
2022/05/01 01:34:17;;;;;;;7.97;4.33;;;;;;;;;;4969181;28;20224;-76
2022/05/01 01:36:42;;;;;;;8.90;4.50;;;;;;;;;;4960961;28;20596;-75
2022/05/01 01:39:10;;;;;;;10.03;4.50;;;;;;;;;;4962009;28;20376;-76
2022/05/01 01:41:36;;;;;;;7.07;4.47;;;;;;;;;;4958971;28;20233;-76
2022/05/01 01:44:07;;;;;;;8.53;4.33;;;;;;;;;;4967733;28;20221;-76
2022/05/01 01:46:36;;;;;;;10.53;4.33;;;;;;;;;;4968615;28;20355;-76
2022/05/01 01:49:01;;;;;;;8.40;4.53;;;;;;;;;;4959486;28;20221;-75
2022/05/01 01:51:27;;;;;;;10.27;4.63;;;;;;;;;;4972745;28;20227;-75
2022/05/01 01:53:53;;;;;;;9.53;4.87;;;;;;;;;;4958199;28;20223;-75
2022/05/01 01:56:24;;;;;;;9.13;4.67;;;;;;;;;;4977025;28;20231;-75
2022/05/01 01:58:50;;;;;;;8.40;4.33;;;;;;;;;;4986163;28;20275;-76
2022/05/01 02:01:17;;;;;;;9.10;4.37;;;;;;;;;;4976134;28;20729;-76
2022/05/01 02:03:43;;;;;;;10.03;4.77;;;;;;;;;;4977007;28;20237;-76
2022/05/01 02:06:14;;;;;;;9.80;4.40;;;;;;;;;;5007215;28;20311;-76
2022/05/01 02:08:42;;;;;;;5.87;4.33;;;;;;;;;;4990098;28;20718;-76
2022/05/01 02:11:10;;;;;;;8.30;4.63;;;;;;;;;;4973582;28;20228;-75
2022/05/01 02:13:36;;;;;;;7.80;4.53;;;;;;;;;;4999803;28;20233;-76
2022/05/01 02:16:04;;;;;;;9.30;4.63;;;;;;;;;;4980781;28;20225;-75
2022/05/01 02:18:29;;;;;;;11.23;4.80;;;;;;;;;;4962878;28;20229;-75
2022/05/01 02:23:41;;;;;;;7.30;5.40;;;;;;;;;;4964279;28;20233;-76
2022/05/01 02:26:09;;;;;;;8.30;4.80;;;;;;;;;;4958637;28;20311;-76
2022/05/01 02:28:39;;;;;;;9.43;4.47;;;;;;;;;;4983583;28;20758;-76
2022/05/01 02:31:05;;;;;;;9.87;4.50;;;;;;;;;;4974811;28;20717;-76
2022/05/01 02:33:38;;;;;;;12.00;4.77;;;;;;;;;;4984121;28;20244;-76
2022/05/01 02:36:07;;;;;;;7.70;4.93;;;;;;;;;;4978657;28;20214;-76
2022/05/01 02:38:36;;;;;;;10.37;5.00;;;;;;;;;;4985023;28;20294;-76
2022/05/01 02:41:02;;;;;;;7.50;4.73;;;;;;;;;;4975944;28;20274;-75
2022/05/01 02:43:28;;;;;;;8.40;4.50;;;;;;;;;;4972479;28;20220;-75
2022/05/01 02:45:53;;;;;;;10.30;5.13;;;;;;;;;;4978507;28;20221;-75
2022/05/01 02:48:22;;;;;;;11.07;5.00;;;;;;;;;;4974715;28;20712;-75
2022/05/01 02:50:47;;;;;;;6.97;4.80;;;;;;;;;;4961128;28;20221;-75
2022/05/01 02:53:15;;;;;;;12.40;5.13;;;;;;;;;;4980700;28;20807;-75
2022/05/01 02:55:41;;;;;;;11.50;4.83;;;;;;;;;;4993678;28;20614;-75
2022/05/01 02:58:06;;;;;;;8.97;4.80;;;;;;;;;;4977349;28;20283;-75
2022/05/01 03:00:33;;;;;;;9.03;4.77;;;;;;;;;;4987793;28;20728;-75
2022/05/01 03:02:59;;;;;;;7.97;5.10;;;;;;;;;;4990466;28;20745;-75
2022/05/01 03:05:27;;;;;;;9.27;4.50;;;;;;;;;;4980931;28;20810;-74
2022/05/01 03:07:55;;;;;;;11.37;4.90;;;;;;;;;;4960182;28;20280;-74
2022/05/01 03:10:22;;;;;;;7.83;5.17;;;;;;;;;;4987465;28;20235;-75
2022/05/01 03:12:47;;;;;;;9.03;4.57;;;;;;;;;;4963253;28;20236;-74
2022/05/01 03:15:13;;;;;;;6.87;4.73;;;;;;;;;;4958919;28;20231;-75
2022/05/01 03:23:23;;;;;;;11.87;5.10;;;;;;;;;;4977981;28;20237;-75
2022/05/01 03:25:48;;;;;;;8.73;4.80;;;;;;;;;;4967935;28;20232;-76
2022/05/01 03:28:13;;;;;;;9.77;4.90;;;;;;;;;;4970014;28;20619;-75
2022/05/01 03:30:39;;;;;;;9.33;4.83;;;;;;;;;;4964378;28;20633;-75
2022/05/01 03:33:07;;;;;;;8.90;4.40;;;;;;;;;;4975497;28;20262;-75
2022/05/01 03:35:38;;;;;;;7.20;4.60;;;;;;;;;;4983888;28;20241;-75
2022/05/01 03:38:06;;;;;;;6.27;4.67;;;;;;;;;;4996518;28;20312;-75
2022/05/01 03:40:35;;;;;;;8.43;5.10;;;;;;;;;;4994583;28;20240;-75
2022/05/01 03:43:03;;;;;;;8.37;5.10;;;;;;;;;;4977242;28;20315;-76
2022/05/01 03:45:34;;;;;;;9.67;5.30;;;;;;;;;;4962157;28;20645;-75
2022/05/01 03:48:02;;;;;;;7.33;5.00;;;;;;;;;;4994277;28;20268;-76
2022/05/01 03:50:30;;;;;;;8.83;5.00;;;;;;;;;;4975846;28;20248;-76
2022/05/01 03:52:55;;;;;;;7.57;4.70;;;;;;;;;;4991457;28;20598;-75
2022/05/01 03:55:22;;;;;;;6.70;4.83;;;;;;;;;;4965213;28;20284;-75
2022/05/01 03:57:50;;;;;;;7.53;4.73;;;;;;;;;;4970363;28;20276;-75
2022/05/01 04:00:18;;;;;;;8.17;4.63;;;;;;;;;;4959923;28;20221;-75
2022/05/01 04:02:46;;;;;;;7.20;5.03;;;;;;;;;;4960200;28;20312;-74
2022/05/01 04:05:15;;;;;;;8.43;4.83;;;;;;;;;;4977182;28;20244;-75
2022/05/01 04:07:41;;;;;;;9.97;5.40;;;;;;;;;;4977461;28;20672;-75
2022/05/01 04:10:07;;;;;;;7.77;5.00;;;;;;;;;;4986611;28;20281;-75
2022/05/01 04:12:59;;;;;;;8.43;5.00;;;;;;;;;;4969516;28;20265;-74
2022/05/01 04:15:25;;;;;;;9.70;5.00;;;;;;;;;;4999055;28;20733;-74
2022/05/01 04:17:53;;;;;;;7.53;4.77;;;;;;;;;;4987880;28;20265;-74
2022/05/01 04:20:22;;;;;;;9.20;5.30;;;;;;;;;;4987135;28;20229;-75
2022/05/01 04:22:50;;;;;;;7.67;5.63;;;;;;;;;;4994251;28;20229;-75
2022/05/01 04:25:19;;;;;;;7.00;5.37;;;;;;;;;;4984027;28;20236;-75
2022/05/01 04:27:51;;;;;;;7.53;5.33;;;;;;;;;;5002269;28;20439;-75
2022/05/01 04:30:17;;;;;;;7.53;5.47;;;;;;;;;;4986490;28;20225;-74
2022/05/01 04:32:55;;;;;;;7.43;5.40;;;;;;;;;;4966712;28;20233;-75
2022/05/01 04:35:29;;;;;;;10.37;5.23;;;;;;;;;;4964441;28;20214;-76
2022/05/01 04:37:59;;;;;;;11.33;5.93;;;;;;;;;;4972445;28;20221;-73
2022/05/01 04:40:27;;;;;;;7.50;5.27;;;;;;;;;;4974124;28;20244;-76
2022/05/01 04:42:52;;;;;;;7.90;5.27;;;;;;;;;;4983653;28;20740;-75
2022/05/01 04:45:20;;;;;;;8.17;5.60;;;;;;;;;;4961659;28;20664;-75
2022/05/01 04:47:48;;;;;;;7.20;5.33;;;;;;;;;;4976848;28;20228;-74
2022/05/01 04:50:17;;;;;;;10.13;5.33;;;;;;;;;;4976710;28;20224;-75
2022/05/01 04:52:45;;;;;;;9.03;5.70;;;;;;;;;;5000113;28;20245;-75
2022/05/01 04:55:13;;;;;;;10.30;6.00;;;;;;;;;;4974171;28;20221;-75
2022/05/01 04:57:39;;;;;;;13.77;6.40;;;;;;;;;;4984012;28;20285;-74
2022/05/01 05:00:10;;;;;;;9.00;5.53;;;;;;;;;;4998425;28;20225;-75
2022/05/01 05:02:39;;;;;;;7.60;5.77;;;;;;;;;;4996128;28;20268;-74
2022/05/01 05:05:08;;;;;;;8.73;5.30;;;;;;;;;;4958372;28;20308;-75
2022/05/01 05:07:34;;;;;;;11.20;5.93;;;;;;;;;;4966069;28;20767;-75
2022/05/01 05:09:59;;;;;;;8.90;5.90;;;;;;;;;;4975407;28;20316;-76
2022/05/01 05:12:27;;;;;;;9.67;5.77;;;;;;;;;;4964706;28;20233;-76
2022/05/01 05:14:58;;;;;;;12.33;6.33;;;;;;;;;;4977370;28;20679;-75
2022/05/01 05:17:24;;;;;;;8.97;6.33;;;;;;;;;;4952711;28;20244;-75
2022/05/01 05:19:52;;;;;;;10.50;5.73;;;;;;;;;;4977125;28;20249;-75
2022/05/01 05:22:17;;;;;;;10.50;5.80;;;;;;;;;;4984046;28;20714;-75
2022/05/01 05:24:48;;;;;;;8.60;5.37;;;;;;;;;;4975956;28;20247;-75
2022/05/01 05:27:13;;;;;;;10.20;5.97;;;;;;;;;;4962497;28;20221;-74
2022/05/01 05:29:39;;;;;;;9.50;5.17;;;;;;;;;;4984165;28;20257;-74
2022/05/01 05:32:07;;;;;;;8.03;5.67;;;;;;;;;;4983717;28;20300;-75
2022/05/01 05:34:33;;;;;;;8.77;5.63;;;;;;;;;;4997315;28;20225;-75
2022/05/01 05:37:00;;;;;;;7.93;5.80;;;;;;;;;;4984700;28;20221;-74
2022/05/01 05:39:28;;;;;;;9.37;5.97;;;;;;;;;;5008987;28;20232;-73
2022/05/01 05:41:54;;;;;;;7.03;5.30;;;;;;;;;;4947314;28;20278;-75
2022/05/01 05:44:21;;;;;;;9.07;5.27;;;;;;;;;;4989869;28;20224;-75
2022/05/01 05:46:47;;;;;;;9.97;5.50;;;;;;;;;;4972659;28;20217;-75
2022/05/01 05:49:12;;;;;;;8.87;5.00;;;;;;;;;;5002435;28;20227;-75
2022/05/01 05:51:38;;;;;;;8.07;5.27;;;;;;;;;;4983463;28;20224;-76
2022/05/01 05:54:06;;;;;;;8.40;4.93;;;;;;;;;;4974099;28;20755;-75
2022/05/01 05:56:32;;;;;;;8.03;5.17;;;;;;;;;;4972262;28;20224;-75
2022/05/01 05:58:59;;;;;;;6.97;5.13;;;;;;;;;;4999221;28;20705;-75
2022/05/01 06:01:25;;;;;;;8.87;5.27;;;;;;;;;;4998818;28;20911;-75
2022/05/01 06:03:50;;;;;;;8.93;4.73;;;;;;;;;;4952721;28;20294;-75
2022/05/01 06:06:17;;;;;;;7.03;4.63;;;;;;;;;;4963675;28;20303;-75
2022/05/01 06:08:45;;;;;;;9.03;4.90;;;;;;;;;;4964043;28;20307;-74
2022/05/01 06:11:13;;;;;;;7.80;4.73;;;;;;;;;;4988209;28;20224;-75
2022/05/01 06:13:39;;;;;;;7.77;4.47;;;;;;;;;;4974884;28;20316;-75
2022/05/01 06:16:04;;;;;;;6.63;4.63;;;;;;;;;;4962099;28;20742;-75
2022/05/01 06:18:32;;;;;;;7.57;4.57;;;;;;;;;;4960609;28;20221;-75
2022/05/01 06:21:02;;;;;;;8.73;4.87;;;;;;;;;;4970736;28;20221;-75
2022/05/01 06:23:34;;;;;;;6.77;4.20;;;;;;;;;;4969875;28;20249;-75
2022/05/01 06:26:03;;;;;;;9.20;4.27;;;;;;;;;;4971209;28;20220;-75
2022/05/01 06:28:31;;;;;;;8.43;4.60;;;;;;;;;;4965841;28;20295;-74
2022/05/01 06:30:59;;;;;;;8.60;4.60;;;;;;;;;;5001450;28;20220;-75
2022/05/01 06:33:25;;;;;;;7.37;4.50;;;;;;;;;;4967695;28;20588;-76
2022/05/01 06:35:52;;;;;;;7.17;4.57;;;;;;;;;;4963340;28;20227;-74
2022/05/01 06:38:20;;;;;;;6.90;4.40;;;;;;;;;;4970664;28;20267;-75
2022/05/01 06:40:46;;;;;;;8.00;4.20;;;;;;;;;;4963266;28;20243;-75
2022/05/01 06:43:15;;;;;;;7.17;4.10;;;;;;;;;;4959806;28;20234;-76
2022/05/01 06:45:45;;;;;;;7.00;4.20;;;;;;;;;;4994996;28;20217;-74
2022/05/01 06:48:10;;;;;;;6.00;3.67;;;;;;;;;;4989244;28;20236;-74
2022/05/01 06:50:36;;;;;;;7.23;3.53;;;;;;;;;;4970161;28;20229;-75
2022/05/01 06:53:04;;;;;;;6.27;3.67;;;;;;;;;;4993759;28;20631;-75
2022/05/01 06:55:30;;;;;;;6.80;3.70;;;;;;;;;;4971902;28;20271;-76
2022/05/01 06:57:55;;;;;;;5.10;3.23;;;;;;;;;;4974424;28;21408;-76
2022/05/01 07:00:21;;;;;;;5.03;2.97;;;;;;;;;;4978958;28;20667;-76
2022/05/01 07:02:53;;;;;;;6.90;3.40;;;;;;;;;;4968012;28;20229;-76
2022/05/01 07:05:22;;;;;;;4.80;3.20;;;;;;;;;;4961391;28;20599;-76
2022/05/01 07:07:54;;;;;;;5.70;3.10;;;;;;;;;;5008775;28;20349;-75
2022/05/01 07:10:20;;;;;;;5.73;2.40;;;;;;;;;;4961533;28;20224;-75
2022/05/01 07:12:48;;;;;;;3.97;2.33;;;;;;;;;;4964625;28;20226;-75
2022/05/01 07:15:14;;;;;;;5.00;2.50;;;;;;;;;;4967940;28;20214;-75
2022/05/01 07:17:39;;;;;;;4.50;2.20;;;;;;;;;;4977362;28;20225;-75
2022/05/01 07:20:08;;;;;;;4.83;2.50;;;;;;;;;;4991718;28;20239;-76
2022/05/01 07:22:33;;;;;;;5.27;2.10;;;;;;;;;;4986026;28;20256;-74
2022/05/01 07:25:01;;;;;;;4.73;2.30;;;;;;;;;;4984322;28;20640;-74
2022/05/01 07:27:26;;;;;;;3.33;1.80;;;;;;;;;;4954790;28;20220;-75
2022/05/01 07:29:51;;;;;;;3.43;1.93;;;;;;;;;;4959396;28;20231;-74
2022/05/01 07:32:19;;;;;;;4.33;2.37;;;;;;;;;;4980185;28;20272;-75
2022/05/01 07:34:45;;;;;;;2.03;1.63;;;;;;;;;;5003272;28;20232;-75
2022/05/01 07:37:13;;;;;;;3.77;2.00;;;;;;;;;;4955902;28;20209;-75
2022/05/01 07:39:39;;;;;;;5.30;1.90;;;;;;;;;;5003108;28;21186;-75
2022/05/01 07:42:04;;;;;;;4.17;2.03;;;;;;;;;;4990013;28;20239;-75
2022/05/01 07:44:30;;;;;;;3.07;1.80;;;;;;;;;;4950371;28;20699;-74
2022/05/01 07:46:58;;;;;;;5.13;1.77;;;;;;;;;;4976638;28;20312;-76
2022/05/01 07:49:29;;;;;;;3.97;1.90;;;;;;;;;;4968504;28;20217;-76
2022/05/01 07:51:56;;;;;;;3.63;1.77;;;;;;;;;;5004117;28;20224;-75
2022/05/01 07:54:27;;;;;;;3.20;1.53;;;;;;;;;;4973469;28;20352;-74
2022/05/01 07:56:55;;;;;;;4.17;1.80;;;;;;;;;;4977593;28;20312;-75
2022/05/01 07:59:21;;;;;;;2.33;1.40;;;;;;;;;;4932208;28;20225;-75
2022/05/01 08:01:48;;;;;;;3.80;1.63;;;;;;;;;;4976043;28;20232;-74
2022/05/01 08:04:32;;;;;;;2.30;1.60;;;;;;;;;;4965320;28;20260;-75
2022/05/01 08:06:59;;;;;;;2.20;1.33;;;;;;;;;;4986375;28;20234;-75
2022/05/01 08:09:29;;;;;;;1.03;1.00;;;;;;;;;;4986184;28;20690;-75
2022/05/01 08:11:55;;;;;;;1.53;1.10;;;;;;;;;;4959868;28;20233;-75
2022/05/01 08:14:23;;;;;;;2.23;0.97;;;;;;;;;;4967893;28;20217;-75
2022/05/01 08:16:49;;;;;;;2.00;1.20;;;;;;;;;;4975493;28;20224;-74
2022/05/01 08:22:01;;;;;;;1.53;1.27;;;;;;;;;;4987832;28;20611;-75
2022/05/01 08:24:28;;;;;;;1.60;1.00;;;;;;;;;;4955994;28;20209;-74
2022/05/01 08:26:54;;;;;;;1.97;0.97;;;;;;;;;;4967578;28;20221;-76
2022/05/01 08:29:21;;;;;;;1.53;1.17;;;;;;;;;;4957015;28;20235;-74
2022/05/01 08:31:47;;;;;;;0.77;0.77;;;;;;;;;;4968658;28;20235;-75
2022/05/01 08:34:12;;;;;;;1.90;0.90;;;;;;;;;;4974652;28;20233;-74
2022/05/01 08:36:41;;;;;;;1.40;0.90;;;;;;;;;;5003979;28;20734;-75
2022/05/01 08:39:07;;;;;;;0.90;0.90;;;;;;;;;;4985536;28;20217;-75
2022/05/01 08:41:34;;;;;;;1.27;1.00;;;;;;;;;;4973994;28;20725;-77
2022/05/01 08:44:03;;;;;;;1.83;0.90;;;;;;;;;;4960523;28;20657;-76
2022/05/01 08:46:56;;;;;;;1.43;1.07;;;;;;;;;;4976924;28;20651;-77
2022/05/01 08:49:26;;;;;;;1.37;1.10;;;;;;;;;;5014798;22;20197;-82
2022/05/01 08:51:55;;;;;;;2.67;1.30;;;;;;;;;;4991251;28;20644;-79
2022/05/01 08:54:26;;;;;;;1.87;1.20;;;;;;;;;;4999380;28;20760;-81
2022/05/01 08:56:56;;;;;;;1.70;0.90;;;;;;;;;;4997801;28;20613;-81
2022/05/01 08:59:28;;;;;;;1.43;0.80;;;;;;;;;;5031974;28;20242;-80
2022/05/01 09:01:54;;;;;;;2.60;0.97;;;;;;;;;;4994657;28;20244;-81
2022/05/01 09:04:19;;;;;;;0.90;0.90;;;;;;;;;;5023821;28;21028;-80
2022/05/01 09:06:45;;;;;;;1.63;0.90;;;;;;;;;;5006774;28;20227;-80
2022/05/01 09:09:15;;;;;;;1.83;1.10;;;;;;;;;;4979185;28;20224;-82
2022/05/01 09:14:27;;;;;;;1.80;1.13;;;;;;;;;;4985960;28;20224;-81
2022/05/01 09:17:17;;;;;;;1.50;1.00;;;;;;;;;;4996025;28;20374;-80
2022/05/01 09:19:48;;;;;;;1.02;0.95;;;;;;;;;;5023913;28;20261;-81
2022/05/01 09:22:14;;;;;;;1.30;1.10;;;;;;;;;;5011503;28;20223;-79
2022/05/01 09:24:40;;;;;;;1.63;1.13;;;;;;;;;;4999434;28;20247;-80
2022/05/01 09:27:05;;;;;;;2.27;1.30;;;;;;;;;;5014796;28;20221;-81
2022/05/01 09:29:36;;;;;;;2.03;1.20;;;;;;;;;;5020760;28;20237;-78
2022/05/01 09:32:03;;;;;;;1.40;1.10;;;;;;;;;;4990201;28;20279;-79
2022/05/01 09:34:33;;;;;;;0.98;0.90;;;;;;;;;;4999693;28;20220;-79
2022/05/01 09:37:05;;;;;;;1.27;1.10;;;;;;;;;;5021187;28;20263;-78
2022/05/01 09:39:31;;;;;;;2.45;1.20;;;;;;;;;;4985079;28;20229;-79
2022/05/01 09:42:18;;;;;;;4.63;1.63;;;;;;;;;;4998802;28;20217;-78
2022/05/01 09:44:46;;;;;;;1.75;1.00;;;;;;;;;;4986769;28;20688;-80
2022/05/01 09:47:12;;;;;;;1.17;0.90;;;;;;;;;;4984205;28;20603;-80
2022/05/01 09:49:48;;;;;;;1.67;1.27;;;;;;;;;;4989819;28;20247;-79
2022/05/01 09:52:13;;;;;;;1.90;1.42;;;;;;;;;;5025182;28;20217;-78
2022/05/01 09:58:38;;;;;;;1.95;1.20;;;;;;;;;;5043609;28;20309;-80
2022/05/01 10:01:11;;;;;;;3.80;1.10;;;;;;;;;;5007701;28;20231;-80
2022/05/01 10:03:46;;;;;;;2.67;1.00;;;;;;;;;;4991907;28;20232;-79
2022/05/01 10:06:13;;;;;;;1.52;0.93;;;;;;;;;;5001861;28;20538;-79
2022/05/01 10:08:39;;;;;;;1.23;0.90;;;;;;;;;;4993552;28;20229;-78
2022/05/01 10:11:05;;;;;;;1.83;0.88;;;;;;;;;;4983083;28;20219;-79
2022/05/01 10:13:31;;;;;;;1.98;1.13;;;;;;;;;;4999457;28;20232;-78
2022/05/01 10:15:56;;;;;;;2.05;1.20;;;;;;;;;;5021518;28;20204;-79
2022/05/01 10:18:23;;;;;;;1.75;1.10;;;;;;;;;;4985943;28;20640;-80
2022/05/01 10:20:51;;;;;;;1.10;1.00;;;;;;;;;;5000544;28;20216;-78
2022/05/01 10:23:16;;;;;;;2.63;1.40;;;;;;;;;;5003128;28;20279;-77
2022/05/01 10:25:51;;;;;;;2.28;1.30;;;;;;;;;;5004277;28;20689;-79
2022/05/01 10:28:53;;;;;;;2.45;1.50;;;;;;;;;;4999284;28;20647;-78
2022/05/01 10:34:51;;;;;;;2.10;1.35;;;;;;;;;;5012473;28;20995;-80
2022/05/01 10:37:59;;;;;;;1.92;1.40;;;;;;;;;;5015492;28;20295;-83
2022/05/01 10:40:25;;;;;;;2.33;1.45;;;;;;;;;;4987333;28;20232;-81
2022/05/01 10:42:50;;;;;;;1.65;1.40;;;;;;;;;;4999708;28;20250;-81
2022/05/01 10:45:22;;;;;;;2.65;1.50;;;;;;;;;;5020857;23;20302;-74
2022/05/01 10:47:56;;;;;;;5.28;1.70;;;;;;;;;;5032538;28;20298;-74
2022/05/01 10:50:26;;;;;;;2.78;1.60;;;;;;;;;;5039887;28;20212;-74
2022/05/01 10:53:16;;;;;;;3.35;1.30;;;;;;;;;;5015110;28;20242;-72
2022/05/01 10:55:42;;;;;;;2.95;1.33;;;;;;;;;;5040882;28;20322;-73
2022/05/01 10:58:19;;;;;;;1.50;1.10;;;;;;;;;;5033783;28;20278;-73
2022/05/01 11:00:51;;;;;;;1.63;1.50;;;;;;;;;;5020736;28;20231;-75
2022/05/01 11:03:33;;;;;;;4.03;1.80;;;;;;;;;;5024587;28;20223;-74
2022/05/01 11:06:04;;;;;;;2.50;1.63;;;;;;;;;;5018003;28;20230;-73
2022/05/01 11:08:39;;;;;;;1.77;1.50;;;;;;;;;;5041720;28;20298;-74
2022/05/01 11:11:11;;;;;;;1.70;1.40;;;;;;;;;;5013700;28;20254;-74
2022/05/01 11:13:39;;;;;;;2.08;1.60;;;;;;;;;;4974232;28;20228;-74
2022/05/01 11:16:10;;;;;;;2.03;1.60;;;;;;;;;;5004211;28;20215;-74
2022/05/01 11:18:42;;;;;;;1.63;1.50;;;;;;;;;;4983178;28;20822;-74
2022/05/01 11:21:19;;;;;;;2.00;1.45;;;;;;;;;;5016112;28;20694;-75
2022/05/01 11:23:45;;;;;;;3.08;1.60;;;;;;;;;;5046102;28;20243;-74
2022/05/01 11:26:14;;;;;;;4.28;1.67;;;;;;;;;;5003567;28;20696;-73
2022/05/01 11:28:46;;;;;;;2.53;1.30;;;;;;;;;;5041969;28;20720;-74
2022/05/01 11:31:36;;;;;;;3.80;2.00;;;;;;;;;;5013641;28;20285;-74
2022/05/01 11:34:21;;;;;;;2.22;1.80;;;;;;;;;;5032440;28;20223;-75
2022/05/01 11:36:53;;;;;;;2.15;1.75;;;;;;;;;;5041546;28;20212;-74
2022/05/01 11:39:23;;;;;;;2.72;1.58;;;;;;;;;;5046706;28;20685;-73
2022/05/01 11:42:03;;;;;;;2.50;1.60;;;;;;;;;;4994601;28;20216;-73
2022/05/01 11:44:38;;;;;;;2.78;2.03;;;;;;;;;;5002491;28;20261;-75
2022/05/01 11:47:09;;;;;;;2.92;1.42;;;;;;;;;;4983037;28;20230;-74
2022/05/01 11:49:40;;;;;;;2.30;1.77;;;;;;;;;;5008572;28;20219;-73
2022/05/01 11:52:06;;;;;;;1.52;1.42;;;;;;;;;;5015375;28;20231;-74
2022/05/01 11:54:34;;;;;;;4.15;1.58;;;;;;;;;;5008559;28;20223;-74
2022/05/01 12:02:35;;;;;;;3.65;1.50;;;;;;;;;;4990815;28;20695;-74
2022/05/01 12:05:03;;;;;;;1.88;1.60;;;;;;;;;;4987465;28;20248;-73
2022/05/01 12:07:31;;;;;;;2.17;1.67;;;;;;;;;;5005053;28;20224;-73
2022/05/01 12:09:57;;;;;;;3.28;1.60;;;;;;;;;;4988983;28;20230;-74
2022/05/01 12:12:29;;;;;;;1.60;1.50;;;;;;;;;;5014853;28;20243;-73
2022/05/01 12:14:58;;;;;;;3.78;1.73;;;;;;;;;;5012004;28;20577;-72
2022/05/01 12:17:32;;;;;;;1.67;1.40;;;;;;;;;;5009033;28;20561;-74
2022/05/01 12:19:58;;;;;;;4.40;2.35;;;;;;;;;;5012960;28;20258;-73
2022/05/01 12:22:24;;;;;;;3.08;2.70;;;;;;;;;;5006109;28;20228;-74
2022/05/01 12:24:50;;;;;;;3.15;2.03;;;;;;;;;;4990773;28;20306;-73
2022/05/01 12:27:16;;;;;;;3.00;1.73;;;;;;;;;;5016357;28;20286;-73
2022/05/01 12:29:51;;;;;;;3.65;2.13;;;;;;;;;;5011678;28;20238;-73
2022/05/01 12:32:17;;;;;;;2.67;2.25;;;;;;;;;;5028902;28;20731;-75
2022/05/01 12:34:51;;;;;;;10.63;8.63;;;;;;;;;;5014220;28;20694;-73
2022/05/01 12:37:18;;;;;;;3.65;2.70;;;;;;;;;;5021838;28;20596;-74
2022/05/01 12:39:56;;;;;;;2.92;2.28;;;;;;;;;;4996087;28;20303;-74
2022/05/01 12:45:17;;;;;;;3.90;3.60;;;;;;;;;;5050144;28;20220;-75
2022/05/01 12:47:44;;;;;;;2.35;1.85;;;;;;;;;;5026901;28;20235;-75
2022/05/01 12:50:19;;;;;;;3.00;2.70;;;;;;;;;;5031900;28;20279;-74
2022/05/01 12:52:46;;;;;;;7.60;6.82;;;;;;;;;;5027996;28;20234;-74
2022/05/01 12:55:14;;;;;;;3.40;2.45;;;;;;;;;;5011539;28;20217;-75
2022/05/01 12:57:55;;;;;;;3.60;3.15;;;;;;;;;;5030877;28;20870;-74
2022/05/01 13:00:35;;;;;;;2.65;2.30;;;;;;;;;;5029772;28;20246;-75
2022/05/01 13:03:28;;;;;;;4.22;1.95;;;;;;;;;;4972010;28;20319;-72
2022/05/01 13:06:04;;;;;;;2.67;1.85;;;;;;;;;;5016119;28;20226;-75
2022/05/01 13:08:33;;;;;;;3.35;2.15;;;;;;;;;;4971393;28;20277;-75
2022/05/01 13:11:26;;;;;;;3.20;2.60;;;;;;;;;;4992243;28;20222;-74
2022/05/01 13:14:09;;;;;;;3.30;2.30;;;;;;;;;;5026273;28;20226;-75
2022/05/01 13:16:45;;;;;;;2.40;1.80;;;;;;;;;;4954583;28;20762;-74
2022/05/01 13:19:15;;;;;;;2.15;1.60;;;;;;;;;;4988831;28;20239;-74
2022/05/01 13:21:45;;;;;;;3.55;2.00;;;;;;;;;;5012830;28;20231;-74
2022/05/01 13:24:15;;;;;;;2.80;2.00;;;;;;;;;;5017139;28;20314;-73
2022/05/01 13:26:45;;;;;;;3.20;1.98;;;;;;;;;;5012408;28;20235;-74
2022/05/01 13:29:13;;;;;;;3.33;1.90;;;;;;;;;;4990587;28;20220;-74
2022/05/01 13:31:44;;;;;;;2.33;1.55;;;;;;;;;;5030147;28;20227;-74
2022/05/01 13:34:09;;;;;;;2.50;1.77;;;;;;;;;;5012009;28;20223;-74
2022/05/01 13:36:35;;;;;;;3.03;1.92;;;;;;;;;;5016845;28;20208;-75
2022/05/01 13:39:04;;;;;;;2.42;2.13;;;;;;;;;;5000573;28;20228;-74
2022/05/01 13:47:04;;;;;;;3.13;2.00;;;;;;;;;;5022231;28;20219;-76
2022/05/01 13:49:33;;;;;;;2.25;1.88;;;;;;;;;;4994339;28;20213;-75
2022/05/01 13:51:58;;;;;;;2.20;1.88;;;;;;;;;;5027412;28;20298;-76
2022/05/01 13:54:29;;;;;;;2.83;1.70;;;;;;;;;;4992680;28;20219;-73
2022/05/01 13:56:56;;;;;;;2.17;1.52;;;;;;;;;;5019286;28;20231;-74
2022/05/01 13:59:24;;;;;;;3.15;1.67;;;;;;;;;;4994249;28;20349;-74
2022/05/01 14:01:52;;;;;;;2.00;1.80;;;;;;;;;;5010033;28;20697;-74
2022/05/01 14:04:20;;;;;;;3.40;1.88;;;;;;;;;;5009478;28;20216;-73
2022/05/01 14:06:46;;;;;;;3.10;2.08;;;;;;;;;;5014328;28;20224;-74
2022/05/01 14:09:12;;;;;;;2.40;2.20;;;;;;;;;;5000735;28;20315;-75
2022/05/01 14:11:38;;;;;;;3.10;2.40;;;;;;;;;;4998827;28;20235;-75
2022/05/01 14:14:03;;;;;;;4.72;2.33;;;;;;;;;;5006545;28;20311;-74
2022/05/01 14:16:31;;;;;;;2.45;1.98;;;;;;;;;;5008046;28;20227;-74
2022/05/01 14:18:59;;;;;;;2.10;1.90;;;;;;;;;;5023415;28;20296;-75
2022/05/01 14:21:25;;;;;;;3.10;2.22;;;;;;;;;;5009198;28;20227;-75
2022/05/01 14:23:50;;;;;;;2.22;2.00;;;;;;;;;;4995578;28;20220;-74
2022/05/01 14:26:16;;;;;;;3.17;2.45;;;;;;;;;;5008017;28;20208;-75
2022/05/01 14:28:44;;;;;;;2.25;2.03;;;;;;;;;;4997314;28;20228;-74
2022/05/01 14:31:15;;;;;;;2.17;1.90;;;;;;;;;;5030746;28;20231;-76
2022/05/01 14:33:46;;;;;;;2.40;2.20;;;;;;;;;;5029348;28;20297;-74
2022/05/01 14:36:22;;;;;;;2.50;2.00;;;;;;;;;;5012929;23;20310;-81
2022/05/01 14:39:10;;;;;;;4.35;3.40;;;;;;;;;;4942249;28;20214;-80
2022/05/01 14:41:49;;;;;;;4.35;2.13;;;;;;;;;;4960803;28;20230;-81
2022/05/01 14:44:21;;;;;;;2.25;2.03;;;;;;;;;;4967024;28;20620;-79
2022/05/01 14:46:49;;;;;;;3.50;2.10;;;;;;;;;;4928212;29;20315;-79
2022/05/01 14:49:36;;;;;;;2.63;1.90;;;;;;;;;;4943183;28;20577;-78
2022/05/01 14:52:03;;;;;;;2.42;1.98;;;;;;;;;;4950433;28;20237;-78
2022/05/01 14:54:31;;;;;;;2.60;1.88;;;;;;;;;;4945970;28;20230;-77
2022/05/01 14:57:00;;;;;;;3.15;2.55;;;;;;;;;;4956377;28;20239;-78
2022/05/01 15:08:27;;;;;;;3.00;1.90;;;;;;;;;;4953673;28;20358;-80
2022/05/01 15:10:55;;;;;;;2.45;1.50;;;;;;;;;;4952261;28;20226;-79
2022/05/01 15:13:23;;;;;;;2.35;1.73;;;;;;;;;;4929449;28;20231;-78
2022/05/01 15:16:16;;;;;;;2.10;1.90;;;;;;;;;;4950287;28;20722;-79
2022/05/01 15:18:42;;;;;;;3.20;2.00;;;;;;;;;;4968574;28;20246;-80
2022/05/01 15:24:33;;;;;;;2.15;1.88;;;;;;;;;;4980804;22;20317;-75
2022/05/01 15:27:03;;;;;;;2.90;1.70;;;;;;;;;;4952393;28;20252;-75
2022/05/01 15:29:45;;;;;;;1.63;1.52;;;;;;;;;;4960083;28;20218;-76
2022/05/01 15:32:15;;;;;;;3.50;1.70;;;;;;;;;;4961713;28;20228;-73
2022/05/01 15:34:41;;;;;;;1.95;1.50;;;;;;;;;;4974516;28;20375;-73
2022/05/01 15:37:07;;;;;;;4.13;2.50;;;;;;;;;;4941034;28;20301;-73
2022/05/01 15:39:41;;;;;;;4.10;1.83;;;;;;;;;;4956298;28;20238;-75
2022/05/01 15:42:17;;;;;;;2.88;2.00;;;;;;;;;;4958619;28;20635;-75
2022/05/01 15:44:54;;;;;;;2.38;1.95;;;;;;;;;;4966058;28;20226;-73